Latest Weather Observations for North Head

IDN60901

Issued at 8:05 pm EDT Tuesday 21 October 2014 (issued every 10 minutes, with the page automatically refreshed every 10 minutes)

About weather observations | Map of Sydney area stations | Latest observations for Sydney area | Other Formats
Station Details ID: 066197 Name: NORTH HEAD Lat: -33.82 Lon: 151.30 Height: 90.0 m
Data from the previous 72 hours. | See also: Recent months for locations in New South Wales
Date/Time
EDT
Tmp

°C
App
Tmp
°C
Dew
Point
°C
Rel
Hum
%
Delta-T

°C
Wind Press
QNH
hPa
Press
MSL
hPa
Rain
since
9 am
mm
Dir
 
Spd
km/h
Gust
km/h
Spd
kts
Gust
kts
21/08:00pm - - - - - E 15 22 8 12 - - -
21/07:30pm - - - - - ENE 13 22 7 12 - - -
21/07:00pm - - - - - ENE 11 17 6 9 - - -
21/06:30pm - - - - - ENE 11 19 6 10 - - -
21/06:00pm - - - - - E 13 22 7 12 - - -
21/05:30pm - - - - - E 13 22 7 12 - - -
21/05:00pm - - - - - E 9 17 5 9 - - -
21/04:30pm - - - - - E 11 15 6 8 - - -
21/04:00pm - - - - - E 11 20 6 11 - - -
21/03:30pm - - - - - E 13 19 7 10 - - -
21/03:00pm - - - - - E 11 22 6 12 - - -
21/02:30pm - - - - - E 11 19 6 10 - - -
21/02:00pm - - - - - E 13 20 7 11 - - -
21/01:30pm - - - - - E 17 22 9 12 - - -
21/01:00pm - - - - - E 17 26 9 14 - - -
21/12:30pm - - - - - E 11 17 6 9 - - -
21/12:00pm - - - - - E 11 17 6 9 - - -
21/11:30am - - - - - E 13 19 7 10 - - -
21/11:00am - - - - - ESE 13 20 7 11 - - -
21/10:30am - - - - - ESE 15 22 8 12 - - -
21/10:00am - - - - - E 15 24 8 13 - - -
21/09:30am - - - - - E 15 20 8 11 - - -
21/09:00am - - - - - E 17 26 9 14 - - -
21/08:30am - - - - - ESE 19 26 10 14 - - -
21/08:00am - - - - - E 19 28 10 15 - - -
21/07:30am - - - - - ESE 17 24 9 13 - - -
21/07:00am - - - - - ESE 15 26 8 14 - - -
21/06:30am - - - - - ESE 15 22 8 12 - - -
21/06:00am - - - - - ESE 13 22 7 12 - - -
21/05:30am - - - - - SSE 13 22 7 12 - - -
21/05:00am - - - - - ESE 13 28 7 15 - - -
21/04:30am - - - - - SE 9 17 5 9 - - -
21/04:00am - - - - - SSE 11 20 6 11 - - -
21/03:30am - - - - - SE 11 20 6 11 - - -
21/03:00am - - - - - ESE 13 26 7 14 - - -
21/02:30am - - - - - ESE 17 26 9 14 - - -
21/02:00am - - - - - ESE 20 33 11 18 - - -
21/01:30am - - - - - E 19 30 10 16 - - -
21/01:00am - - - - - ESE 19 28 10 15 - - -
21/12:30am - - - - - E 15 24 8 13 - - -
21/12:00am - - - - - ESE 22 33 12 18 - - -
 
Date/Time
EDT
Tmp

°C
App
Tmp
°C
Dew
Point
°C
Rel
Hum
%
Delta-T

°C
Wind Press
QNH
hPa
Press
MSL
hPa
Rain
since
9 am
mm
Dir
 
Spd
km/h
Gust
km/h
Spd
kts
Gust
kts
20/11:30pm - - - - - ESE 19 32 10 17 - - -
20/11:00pm - - - - - ESE 22 30 12 16 - - -
20/10:30pm - - - - - E 19 26 10 14 - - -
20/10:00pm - - - - - SE 20 30 11 16 - - -
20/09:30pm - - - - - ESE 17 26 9 14 - - -
20/09:00pm - - - - - SE 20 32 11 17 - - -
20/08:30pm - - - - - ESE 19 32 10 17 - - -
20/08:00pm - - - - - SE 15 24 8 13 - - -
20/07:30pm - - - - - SE 24 37 13 20 - - -
20/07:00pm - - - - - SSE 20 30 11 16 - - -
20/06:30pm - - - - - SSE 20 35 11 19 - - -
20/06:00pm - - - - - SSE 22 35 12 19 - - -
20/05:30pm - - - - - SSE 22 32 12 17 - - -
20/05:00pm - - - - - SSE 24 35 13 19 - - -
20/04:30pm - - - - - SSE 28 41 15 22 - - -
20/04:00pm - - - - - S 26 39 14 21 - - -
20/03:30pm - - - - - S 22 32 12 17 - - -
20/03:00pm - - - - - S 24 37 13 20 - - -
20/02:30pm - - - - - S 26 37 14 20 - - -
20/02:00pm - - - - - S 22 33 12 18 - - -
20/01:30pm - - - - - S 22 35 12 19 - - -
20/01:00pm - - - - - S 22 32 12 17 - - -
20/12:30pm - - - - - S 28 43 15 23 - - -
20/12:00pm - - - - - S 26 43 14 23 - - -
20/11:30am - - - - - S 24 43 13 23 - - -
20/11:04am - - - - - S 28 46 15 25 - - -
20/11:00am - - - - - S 30 46 16 25 - - -
20/10:30am - - - - - S 33 57 18 31 - - -
20/10:00am - - - - - S 32 50 17 27 - - -
20/09:38am - - - - - S 32 50 17 27 - - -
20/09:30am - - - - - S 33 52 18 28 - - -
20/09:05am - - - - - S 35 56 19 30 - - -
20/09:00am - - - - - S 33 50 18 27 - - -
20/08:30am - - - - - S 39 63 21 34 - - -
20/08:06am - - - - - S 35 56 19 30 - - -
20/08:00am - - - - - S 37 54 20 29 - - -
20/07:30am - - - - - S 39 63 21 34 - - -
20/07:00am - - - - - S 43 63 23 34 - - -
20/06:30am - - - - - S 48 72 26 39 - - -
20/06:06am - - - - - S 32 54 17 29 - - -
20/06:00am - - - - - SW 28 41 15 22 - - -
20/05:56am - - - - - SW 28 44 15 24 - - -
20/05:30am - - - - - W 13 15 7 8 - - -
20/05:00am - - - - - NW 9 11 5 6 - - -
20/04:30am - - - - - NW 7 9 4 5 - - -
20/04:00am - - - - - NNW 7 13 4 7 - - -
20/03:30am - - - - - NW 13 13 7 7 - - -
20/03:00am - - - - - NNW 7 9 4 5 - - -
20/02:30am - - - - - WNW 6 9 3 5 - - -
20/02:00am - - - - - NNW 7 7 4 4 - - -
20/01:30am - - - - - NNW 9 11 5 6 - - -
20/01:00am - - - - - N 15 20 8 11 - - -
20/12:30am - - - - - N 15 22 8 12 - - -
20/12:00am - - - - - N 19 24 10 13 - - -
 
Date/Time
EDT
Tmp

°C
App
Tmp
°C
Dew
Point
°C
Rel
Hum
%
Delta-T

°C
Wind Press
QNH
hPa
Press
MSL
hPa
Rain
since
9 am
mm
Dir
 
Spd
km/h
Gust
km/h
Spd
kts
Gust
kts
19/11:30pm - - - - - N 17 24 9 13 - - -
19/11:00pm - - - - - NNE 20 26 11 14 - - -
19/10:30pm - - - - - NNE 22 28 12 15 - - -
19/10:00pm - - - - - NNE 22 32 12 17 - - -
19/09:30pm - - - - - NNE 22 32 12 17 - - -
19/09:00pm - - - - - N 24 35 13 19 - - -
19/08:30pm - - - - - N 22 35 12 19 - - -
19/08:00pm - - - - - N 22 32 12 17 - - -
19/07:30pm - - - - - N 22 32 12 17 - - -
19/07:00pm - - - - - NNE 22 30 12 16 - - -
19/06:30pm - - - - - NNE 22 30 12 16 - - -
19/06:00pm - - - - - NNE 22 32 12 17 - - -
19/05:30pm - - - - - NNE 22 30 12 16 - - -
19/05:00pm - - - - - NNE 20 30 11 16 - - -
19/04:30pm - - - - - NNE 22 33 12 18 - - -
19/04:00pm - - - - - NNE 20 30 11 16 - - -
19/03:30pm - - - - - NNE 20 30 11 16 - - -
19/03:00pm - - - - - NNE 20 28 11 15 - - -
19/02:30pm - - - - - NNE 20 28 11 15 - - -
19/02:00pm - - - - - NNE 19 26 10 14 - - -
19/01:30pm - - - - - NNE 22 32 12 17 - - -
19/01:00pm - - - - - NNE 19 28 10 15 - - -
19/12:30pm - - - - - NNE 20 26 11 14 - - -
19/12:00pm - - - - - NNE 17 26 9 14 - - -
19/11:30am - - - - - NNE 17 24 9 13 - - -
19/11:00am - - - - - NNE 15 22 8 12 - - -
19/10:30am - - - - - NNE 15 20 8 11 - - -
19/10:00am - - - - - NNE 13 17 7 9 - - -
19/09:30am - - - - - N 9 15 5 8 - - -
19/09:00am - - - - - N 9 15 5 8 - - -
19/08:30am - - - - - N 11 15 6 8 - - -
19/08:00am - - - - - N 13 20 7 11 - - -
19/07:30am - - - - - N 11 17 6 9 - - -
19/07:00am - - - - - N 11 17 6 9 - - -
19/06:30am - - - - - NNW 9 13 5 7 - - -
19/06:00am - - - - - NNW 11 15 6 8 - - -
19/05:30am - - - - - NNW 11 15 6 8 - - -
19/05:00am - - - - - NNW 11 17 6 9 - - -
19/04:30am - - - - - NNW 11 15 6 8 - - -
19/04:00am - - - - - N 11 15 6 8 - - -
19/03:30am - - - - - N 13 19 7 10 - - -
19/03:00am - - - - - N 11 17 6 9 - - -
19/02:30am - - - - - N 11 17 6 9 - - -
19/02:00am - - - - - N 11 13 6 7 - - -
19/01:30am - - - - - NNW 9 15 5 8 - - -
19/01:00am - - - - - NNW 9 13 5 7 - - -
19/12:30am - - - - - N 9 15 5 8 - - -
19/12:00am - - - - - N 11 17 6 9 - - -
 
Date/Time
EDT
Tmp

°C
App
Tmp
°C
Dew
Point
°C
Rel
Hum
%
Delta-T

°C
Wind Press
QNH
hPa
Press
MSL
hPa
Rain
since
9 am
mm
Dir
 
Spd
km/h
Gust
km/h
Spd
kts
Gust
kts
18/11:30pm - - - - - NNE 15 22 8 12 - - -
18/11:00pm - - - - - NNE 15 22 8 12 - - -
18/10:30pm - - - - - NNE 15 24 8 13 - - -
18/10:00pm - - - - - NE 15 26 8 14 - - -
18/09:30pm - - - - - NE 17 24 9 13 - - -
18/09:00pm - - - - - NE 17 26 9 14 - - -
18/08:30pm - - - - - NE 17 24 9 13 - - -

Latest Capital City Observations: Canberra | Sydney | Melbourne | Brisbane | Adelaide | Perth | Hobart | Darwin

Other Formats:

Comma delimited format used in spreadsheet applications
http://www.bom.gov.au/fwo/IDN60901/IDN60901.95768.axf

JavaScript Object Notation format (JSON) in row-major order
http://www.bom.gov.au/fwo/IDN60901/IDN60901.95768.json